createdAt,value
2018-08-31T00:00:57.894Z,13.60
2018-08-31T00:04:40.966Z,13.60
2018-08-31T00:07:24.606Z,13.60
2018-08-31T00:12:09.539Z,13.50
2018-08-31T00:14:38.085Z,13.50
2018-08-31T00:17:06.526Z,13.40
2018-08-31T00:19:34.958Z,13.40
2018-08-31T00:22:03.377Z,13.40
2018-08-31T00:24:43.307Z,13.40
2018-08-31T00:27:23.009Z,13.40
2018-08-31T00:30:02.774Z,13.40
2018-08-31T00:32:45.310Z,13.40
2018-08-31T00:37:59.348Z,13.40
2018-08-31T00:40:38.245Z,13.40
2018-08-31T00:45:32.067Z,13.30
2018-08-31T00:48:01.032Z,13.20
2018-08-31T00:50:30.062Z,13.30
2018-08-31T00:52:58.953Z,13.20
2018-08-31T00:55:27.553Z,13.20
2018-08-31T00:57:56.015Z,13.20
2018-08-31T01:00:24.476Z,13.20
2018-08-31T01:02:53.005Z,13.30
2018-08-31T01:05:21.433Z,13.30
2018-08-31T01:07:50.098Z,13.30
2018-08-31T01:10:20.247Z,13.30
2018-08-31T01:12:48.670Z,13.30
2018-08-31T01:15:17.142Z,13.30
2018-08-31T01:17:45.558Z,13.30
2018-08-31T01:20:13.966Z,13.20
2018-08-31T01:22:42.525Z,13.20
2018-08-31T01:25:11.574Z,13.20
2018-08-31T01:27:40.130Z,13.20
2018-08-31T01:30:09.129Z,13.20
2018-08-31T01:32:37.649Z,13.20
2018-08-31T01:35:06.137Z,13.20
2018-08-31T01:37:34.606Z,13.10
2018-08-31T01:40:03.078Z,13.10
2018-08-31T01:42:31.599Z,13.10
2018-08-31T01:45:00.045Z,13.10
2018-08-31T01:47:28.465Z,13.10
2018-08-31T01:49:56.894Z,13.10
2018-08-31T01:52:25.430Z,13.00
2018-08-31T01:54:53.865Z,13.00
2018-08-31T01:57:22.290Z,12.90
2018-08-31T01:59:50.729Z,12.90
2018-08-31T02:02:20.492Z,13.00
2018-08-31T02:04:48.890Z,12.90
2018-08-31T02:07:17.309Z,12.90
2018-08-31T02:09:45.790Z,12.90
2018-08-31T02:12:14.561Z,12.90
2018-08-31T02:14:43.065Z,12.80
2018-08-31T02:17:11.497Z,12.90
2018-08-31T02:19:39.903Z,12.90
2018-08-31T02:22:08.346Z,12.80
2018-08-31T02:24:36.803Z,12.80
2018-08-31T02:27:05.251Z,12.80
2018-08-31T02:29:33.649Z,12.80
2018-08-31T02:32:02.079Z,12.80
2018-08-31T02:34:30.567Z,12.80
2018-08-31T02:36:58.990Z,12.70
2018-08-31T02:39:27.407Z,12.70
2018-08-31T02:41:55.830Z,12.70
2018-08-31T02:44:24.347Z,12.70
2018-08-31T02:46:52.788Z,12.70
2018-08-31T02:49:21.209Z,12.60
2018-08-31T02:51:49.619Z,12.70
2018-08-31T02:54:18.107Z,12.60
2018-08-31T02:56:46.511Z,12.60
2018-08-31T02:59:14.957Z,12.60
2018-08-31T03:01:43.426Z,12.60
2018-08-31T03:04:11.930Z,12.60
2018-08-31T03:06:40.375Z,12.60
2018-08-31T03:09:08.805Z,12.70
2018-08-31T03:11:37.372Z,12.60
2018-08-31T03:14:05.804Z,12.70
2018-08-31T03:16:34.212Z,12.70
2018-08-31T03:19:02.634Z,12.70
2018-08-31T03:21:31.046Z,11.80
2018-08-31T03:23:59.546Z,12.60
2018-08-31T03:26:28.014Z,12.60
2018-08-31T03:28:56.454Z,12.60
2018-08-31T03:31:24.875Z,12.60
2018-08-31T03:33:53.415Z,12.60
2018-08-31T03:36:21.906Z,12.60
2018-08-31T03:38:50.354Z,12.60
2018-08-31T03:41:18.770Z,12.60
2018-08-31T03:43:47.286Z,12.60
2018-08-31T03:46:15.786Z,12.60
2018-08-31T03:48:44.282Z,12.60
2018-08-31T03:51:12.986Z,12.50
2018-08-31T03:53:41.466Z,12.50
2018-08-31T03:56:09.893Z,12.50
2018-08-31T03:58:38.378Z,12.50
2018-08-31T04:01:06.826Z,12.40
2018-08-31T04:03:35.409Z,12.40
2018-08-31T04:06:03.845Z,12.40
2018-08-31T04:08:32.273Z,12.40
2018-08-31T04:11:00.693Z,12.30
2018-08-31T04:13:29.174Z,12.30
2018-08-31T04:15:57.589Z,12.30
2018-08-31T04:18:26.083Z,12.30
2018-08-31T04:20:54.500Z,12.30
2018-08-31T04:23:23.023Z,12.30
2018-08-31T04:25:51.446Z,12.30
2018-08-31T04:28:19.845Z,12.30
2018-08-31T04:30:48.298Z,12.30
2018-08-31T04:33:16.729Z,12.30
2018-08-31T04:35:45.156Z,12.30
2018-08-31T04:38:13.612Z,12.30
2018-08-31T04:40:42.097Z,12.30
2018-08-31T04:43:10.619Z,12.30
2018-08-31T04:45:39.087Z,12.30
2018-08-31T04:48:07.507Z,12.30
2018-08-31T04:50:35.965Z,12.30
2018-08-31T04:53:04.550Z,12.30
2018-08-31T04:55:32.981Z,12.30
2018-08-31T04:58:01.420Z,12.20
2018-08-31T05:00:29.878Z,12.20
2018-08-31T05:02:58.451Z,12.20
2018-08-31T05:05:26.871Z,12.30
2018-08-31T05:07:55.295Z,12.20
2018-08-31T05:10:23.721Z,12.20
2018-08-31T05:12:52.238Z,12.20
2018-08-31T05:15:20.726Z,12.30
2018-08-31T05:17:49.137Z,12.30
2018-08-31T05:20:17.618Z,12.30
2018-08-31T05:22:46.328Z,12.30
2018-08-31T05:25:14.695Z,12.30
2018-08-31T05:27:43.127Z,12.40
2018-08-31T05:30:11.598Z,12.40
2018-08-31T05:32:40.084Z,12.40
2018-08-31T05:35:08.543Z,12.40
2018-08-31T05:37:36.999Z,12.50
2018-08-31T05:40:05.490Z,12.50
2018-08-31T05:42:33.997Z,12.50
2018-08-31T05:45:02.449Z,12.50
2018-08-31T05:47:30.901Z,12.60
2018-08-31T05:49:59.330Z,12.60
2018-08-31T05:52:27.839Z,12.60
2018-08-31T05:54:56.311Z,12.60
2018-08-31T05:57:24.734Z,12.70
2018-08-31T05:59:53.197Z,12.70
2018-08-31T06:02:21.697Z,12.70
2018-08-31T06:04:50.114Z,12.80
2018-08-31T06:07:18.548Z,12.80
2018-08-31T06:09:47.158Z,12.80
2018-08-31T06:12:15.599Z,12.80
2018-08-31T06:14:44.028Z,12.90
2018-08-31T06:17:12.501Z,12.90
2018-08-31T06:19:40.984Z,13.00
2018-08-31T06:22:09.412Z,13.10
2018-08-31T06:24:37.834Z,13.10
2018-08-31T06:27:06.271Z,13.10
2018-08-31T06:29:34.787Z,13.20
2018-08-31T06:32:03.234Z,13.40
2018-08-31T06:34:31.733Z,13.50
2018-08-31T06:37:00.258Z,13.60
2018-08-31T06:39:28.735Z,13.70
2018-08-31T06:41:57.186Z,13.70
2018-08-31T06:44:25.637Z,13.80
2018-08-31T06:46:54.099Z,13.90
2018-08-31T06:49:22.540Z,14.00
2018-08-31T06:51:50.949Z,14.10
2018-08-31T06:54:19.503Z,14.20
2018-08-31T06:56:47.963Z,14.30
2018-08-31T06:59:16.394Z,14.40
2018-08-31T07:01:44.895Z,14.60
2018-08-31T07:04:13.455Z,14.80
2018-08-31T07:06:41.877Z,15.00
2018-08-31T07:09:11.549Z,15.20
2018-08-31T07:11:40.312Z,15.40
2018-08-31T07:14:09.109Z,15.60
2018-08-31T07:16:37.558Z,15.70
2018-08-31T07:19:06.041Z,15.80
2018-08-31T07:21:34.463Z,15.80
2018-08-31T07:24:03.021Z,15.90
2018-08-31T07:26:31.528Z,15.90
2018-08-31T07:28:59.910Z,15.90
2018-08-31T07:31:28.333Z,16.00
2018-08-31T07:33:56.792Z,16.10
2018-08-31T07:36:25.284Z,16.30
2018-08-31T07:38:53.677Z,16.40
2018-08-31T07:41:22.175Z,16.50
2018-08-31T07:43:50.656Z,16.60
2018-08-31T07:46:19.079Z,16.60
2018-08-31T07:48:47.529Z,16.80
2018-08-31T07:51:15.953Z,16.80
2018-08-31T07:53:44.564Z,16.90
2018-08-31T07:56:13.014Z,16.90
2018-08-31T07:58:41.508Z,17.10
2018-08-31T08:01:10.002Z,17.10
2018-08-31T08:03:38.574Z,17.00
2018-08-31T08:06:07.043Z,17.00
2018-08-31T08:08:35.514Z,17.00
2018-08-31T08:11:03.942Z,17.00
2018-08-31T08:13:32.522Z,17.00
2018-08-31T08:16:00.937Z,17.00
2018-08-31T08:18:29.389Z,17.00
2018-08-31T08:20:57.834Z,17.00
2018-08-31T08:23:26.410Z,17.00
2018-08-31T08:25:54.813Z,17.00
2018-08-31T08:28:23.353Z,17.00
2018-08-31T08:30:51.763Z,17.10
2018-08-31T08:33:20.307Z,17.10
2018-08-31T08:35:48.793Z,17.10
2018-08-31T08:38:17.229Z,17.20
2018-08-31T08:40:45.654Z,17.20
2018-08-31T08:43:14.081Z,17.20
2018-08-31T08:45:42.496Z,17.30
2018-08-31T08:48:10.940Z,17.30
2018-08-31T08:50:39.391Z,17.40
2018-08-31T08:53:07.836Z,17.50
2018-08-31T08:55:36.292Z,17.50
2018-08-31T08:58:04.737Z,17.60
2018-08-31T09:00:33.168Z,17.60
2018-08-31T09:03:01.676Z,17.60
2018-08-31T09:05:31.274Z,17.60
2018-08-31T09:07:59.678Z,17.60
2018-08-31T09:10:28.110Z,17.80
2018-08-31T09:12:56.642Z,17.90
2018-08-31T09:15:25.084Z,18.00
2018-08-31T09:17:53.734Z,18.10
2018-08-31T09:20:22.234Z,18.10
2018-08-31T09:22:50.799Z,18.20
2018-08-31T09:25:19.213Z,18.20
2018-08-31T09:27:47.658Z,18.20
2018-08-31T09:30:21.439Z,18.10
2018-08-31T09:32:50.002Z,18.20
2018-08-31T09:35:18.427Z,18.20
2018-08-31T09:37:46.844Z,18.20
2018-08-31T09:40:15.284Z,18.20
2018-08-31T09:42:43.714Z,18.30
2018-08-31T09:45:12.165Z,18.30
2018-08-31T09:47:40.629Z,18.30
2018-08-31T09:50:09.062Z,18.30
2018-08-31T09:52:37.577Z,18.30
2018-08-31T09:55:06.401Z,18.30
2018-08-31T09:57:34.858Z,18.30
2018-08-31T10:00:03.319Z,18.30
2018-08-31T10:02:37.991Z,18.20
2018-08-31T10:05:07.575Z,18.20
2018-08-31T10:07:36.082Z,18.20
2018-08-31T10:10:04.526Z,18.20
2018-08-31T10:12:33.023Z,18.20
2018-08-31T10:15:01.487Z,18.30
2018-08-31T10:17:29.940Z,18.20
2018-08-31T10:19:58.362Z,18.30
2018-08-31T10:22:26.834Z,18.30
2018-08-31T10:24:55.317Z,18.40
2018-08-31T10:27:23.802Z,18.40
2018-08-31T10:29:52.251Z,18.40
2018-08-31T10:32:20.730Z,18.30
2018-08-31T10:34:49.179Z,18.40
2018-08-31T10:37:17.621Z,18.50
2018-08-31T10:39:46.066Z,18.60
2018-08-31T10:42:14.510Z,18.80
2018-08-31T10:44:43.014Z,18.90
2018-08-31T10:47:11.509Z,18.90
2018-08-31T10:49:39.978Z,19.10
2018-08-31T10:52:08.439Z,19.20
2018-08-31T10:54:37.037Z,19.10
2018-08-31T10:57:05.493Z,19.00
2018-08-31T10:59:33.944Z,18.90
2018-08-31T11:02:02.478Z,19.00
2018-08-31T11:04:31.026Z,19.00
2018-08-31T11:06:59.471Z,18.90
2018-08-31T11:09:27.906Z,18.90
2018-08-31T11:11:56.347Z,18.80
2018-08-31T11:14:24.877Z,19.00
2018-08-31T11:16:53.323Z,19.20
2018-08-31T11:19:21.852Z,19.40
2018-08-31T11:21:50.362Z,19.60
2018-08-31T11:24:18.854Z,19.90
2018-08-31T11:26:47.318Z,20.20
2018-08-31T11:29:15.826Z,20.40
2018-08-31T11:31:44.326Z,20.70
2018-08-31T11:34:12.863Z,20.90
2018-08-31T11:36:41.336Z,21.10
2018-08-31T11:39:10.876Z,21.30
2018-08-31T11:41:39.628Z,21.40
2018-08-31T11:44:08.206Z,21.50
2018-08-31T11:46:36.713Z,21.40
2018-08-31T11:49:05.431Z,21.30
2018-08-31T11:51:33.854Z,21.00
2018-08-31T11:54:02.387Z,20.80
2018-08-31T11:56:30.820Z,20.70
2018-08-31T11:58:59.267Z,20.60
2018-08-31T12:01:27.762Z,20.50
2018-08-31T12:03:56.359Z,20.50
2018-08-31T12:06:24.838Z,20.40
2018-08-31T12:08:53.265Z,20.40
2018-08-31T12:11:21.730Z,20.20
2018-08-31T12:13:50.225Z,20.00
2018-08-31T12:16:25.115Z,20.00
2018-08-31T12:18:53.574Z,20.40
2018-08-31T12:21:22.077Z,20.70
2018-08-31T12:23:50.635Z,21.00
2018-08-31T12:26:19.065Z,21.40
2018-08-31T12:28:47.522Z,21.70
2018-08-31T12:31:15.949Z,22.00
2018-08-31T12:33:44.382Z,22.20
2018-08-31T12:36:12.810Z,22.30
2018-08-31T12:38:41.222Z,22.30
2018-08-31T12:41:09.729Z,21.90
2018-08-31T12:43:38.283Z,21.60
2018-08-31T12:46:06.742Z,21.30
2018-08-31T12:48:35.271Z,21.40
2018-08-31T12:51:03.715Z,21.40
2018-08-31T12:53:32.206Z,21.40
2018-08-31T12:56:00.649Z,21.10
2018-08-31T12:58:29.101Z,21.00
2018-08-31T13:00:57.563Z,21.30
2018-08-31T13:03:26.175Z,21.50
2018-08-31T13:05:54.661Z,21.80
2018-08-31T13:08:23.110Z,22.10
2018-08-31T13:10:51.698Z,22.40
2018-08-31T13:13:20.180Z,22.60
2018-08-31T13:15:48.658Z,22.70
2018-08-31T13:18:17.136Z,22.70
2018-08-31T13:20:45.634Z,22.40
2018-08-31T13:23:14.147Z,21.80
2018-08-31T13:25:42.627Z,21.60
2018-08-31T13:28:11.135Z,21.70
2018-08-31T13:30:39.630Z,21.90
2018-08-31T13:33:08.148Z,22.10
2018-08-31T13:35:36.604Z,22.10
2018-08-31T13:38:05.100Z,22.20
2018-08-31T13:40:33.501Z,22.50
2018-08-31T13:43:01.978Z,22.80
2018-08-31T13:45:30.407Z,23.10
2018-08-31T13:47:58.850Z,23.30
2018-08-31T13:50:27.293Z,23.40
2018-08-31T13:52:56.038Z,23.40
2018-08-31T13:55:24.498Z,23.40
2018-08-31T13:57:52.942Z,23.10
2018-08-31T14:00:21.917Z,23.10
2018-08-31T14:02:50.858Z,23.40
2018-08-31T14:05:19.337Z,22.90
2018-08-31T14:07:47.788Z,22.20
2018-08-31T14:10:16.306Z,21.70
2018-08-31T14:12:45.344Z,21.30
2018-08-31T14:15:14.381Z,21.20
2018-08-31T14:17:42.954Z,21.60
2018-08-31T14:20:11.456Z,22.00
2018-08-31T14:22:40.087Z,22.60
2018-08-31T14:25:08.530Z,22.70
2018-08-31T14:27:37.095Z,22.40
2018-08-31T14:30:05.585Z,21.80
2018-08-31T14:32:35.127Z,21.20
2018-08-31T14:35:03.619Z,21.30
2018-08-31T14:37:32.131Z,21.70
2018-08-31T14:40:00.751Z,21.90
2018-08-31T14:42:29.326Z,21.90
2018-08-31T14:44:57.791Z,21.90
2018-08-31T14:47:26.245Z,22.00
2018-08-31T14:49:54.789Z,22.20
2018-08-31T14:52:23.246Z,22.20
2018-08-31T14:54:51.685Z,22.20
2018-08-31T14:57:20.403Z,22.20
2018-08-31T14:59:48.923Z,22.20
2018-08-31T15:02:17.490Z,22.40
2018-08-31T15:04:45.935Z,22.40
2018-08-31T15:07:14.422Z,22.40
2018-08-31T15:09:42.977Z,22.40
2018-08-31T15:12:11.497Z,22.30
2018-08-31T15:14:40.185Z,22.40
2018-08-31T15:17:08.635Z,22.30
2018-08-31T15:19:37.153Z,22.30
2018-08-31T15:22:05.628Z,22.20
2018-08-31T15:24:34.096Z,22.20
2018-08-31T15:27:02.578Z,22.10
2018-08-31T15:29:31.022Z,22.10
2018-08-31T15:31:59.486Z,22.10
2018-08-31T15:34:28.075Z,22.10
2018-08-31T15:36:56.566Z,22.10
2018-08-31T15:39:25.023Z,22.10
2018-08-31T15:41:53.470Z,22.20
2018-08-31T15:44:22.035Z,22.10
2018-08-31T15:46:50.518Z,22.00
2018-08-31T15:49:18.950Z,22.00
2018-08-31T15:51:47.399Z,22.00
2018-08-31T15:54:15.918Z,21.90
2018-08-31T15:56:44.417Z,21.90
2018-08-31T15:59:12.911Z,21.80
2018-08-31T16:01:41.400Z,21.70
2018-08-31T16:04:09.918Z,21.60
2018-08-31T16:06:38.383Z,21.40
2018-08-31T16:09:07.901Z,21.30
2018-08-31T16:11:36.318Z,21.20
2018-08-31T16:14:04.775Z,21.20
2018-08-31T16:16:33.233Z,21.00
2018-08-31T16:19:01.735Z,20.90
2018-08-31T16:21:30.119Z,20.90
2018-08-31T16:23:58.631Z,20.80
2018-08-31T16:26:27.098Z,20.60
2018-08-31T16:28:55.581Z,20.60
2018-08-31T16:31:23.987Z,20.60
2018-08-31T16:33:52.506Z,20.50
2018-08-31T16:36:21.002Z,20.40
2018-08-31T16:38:49.468Z,20.40
2018-08-31T16:41:18.920Z,20.30
2018-08-31T16:43:47.481Z,20.20
2018-08-31T16:46:15.926Z,20.10
2018-08-31T16:48:44.474Z,20.00
2018-08-31T16:51:12.982Z,19.90
2018-08-31T16:53:41.526Z,19.80
2018-08-31T16:56:09.952Z,19.70
2018-08-31T16:58:38.428Z,19.60
2018-08-31T17:01:07.065Z,19.50
2018-08-31T17:03:35.560Z,19.40
2018-08-31T17:06:04.092Z,19.30
2018-08-31T17:08:32.549Z,19.20
2018-08-31T17:11:00.979Z,19.10
2018-08-31T17:13:29.460Z,19.00
2018-08-31T17:15:57.934Z,18.90
2018-08-31T17:18:26.396Z,18.90
2018-08-31T17:20:54.819Z,18.80
2018-08-31T17:23:23.303Z,18.80
2018-08-31T17:25:51.734Z,18.70
2018-08-31T17:28:25.486Z,18.60
2018-08-31T17:30:59.120Z,18.60
2018-08-31T17:33:33.095Z,18.50
2018-08-31T17:36:06.794Z,18.40
2018-08-31T17:38:35.206Z,18.40
2018-08-31T17:41:03.662Z,18.30
2018-08-31T17:43:32.105Z,18.20
2018-08-31T17:46:00.598Z,18.10
2018-08-31T17:48:29.019Z,18.00
2018-08-31T17:50:57.474Z,18.00
2018-08-31T17:53:25.932Z,17.90
2018-08-31T17:55:54.370Z,17.90
2018-08-31T17:58:22.825Z,17.80
2018-08-31T18:00:51.272Z,17.80
2018-08-31T18:03:19.785Z,17.80
2018-08-31T18:05:48.197Z,17.70
2018-08-31T18:08:16.642Z,17.60
2018-08-31T18:10:45.070Z,17.60
2018-08-31T18:13:13.622Z,17.50
2018-08-31T18:15:42.100Z,17.40
2018-08-31T18:18:10.582Z,17.40
2018-08-31T18:20:39.050Z,17.40
2018-08-31T18:23:07.516Z,17.30
2018-08-31T18:25:35.945Z,17.30
2018-08-31T18:28:04.373Z,17.20
2018-08-31T18:30:32.814Z,17.20
2018-08-31T18:33:01.464Z,17.10
2018-08-31T18:35:29.893Z,17.00
2018-08-31T18:37:58.370Z,17.00
2018-08-31T18:40:26.819Z,16.90
2018-08-31T18:42:55.925Z,16.90
2018-08-31T18:45:24.533Z,16.90
2018-08-31T18:47:52.975Z,16.80
2018-08-31T18:50:21.414Z,16.70
2018-08-31T18:52:50.184Z,16.70
2018-08-31T18:55:18.650Z,16.60
2018-08-31T18:57:47.173Z,16.60
2018-08-31T19:00:15.589Z,16.60
2018-08-31T19:02:44.145Z,16.60
2018-08-31T19:05:13.009Z,16.50
2018-08-31T19:07:41.426Z,16.40
2018-08-31T19:10:09.864Z,16.40
2018-08-31T19:12:38.521Z,16.40
2018-08-31T19:15:06.970Z,16.40
2018-08-31T19:17:35.428Z,16.30
2018-08-31T19:20:03.863Z,16.30
2018-08-31T19:22:32.330Z,16.20
2018-08-31T19:25:00.789Z,16.20
2018-08-31T19:27:29.222Z,16.10
2018-08-31T19:29:57.666Z,16.10
2018-08-31T19:32:26.122Z,16.10
2018-08-31T19:34:54.571Z,16.00
2018-08-31T19:37:23.054Z,16.00
2018-08-31T19:39:51.476Z,16.00
2018-08-31T19:42:19.979Z,15.90
2018-08-31T19:44:48.418Z,15.90
2018-08-31T19:47:16.847Z,15.90
2018-08-31T19:49:45.299Z,15.80
2018-08-31T19:52:13.784Z,15.80
2018-08-31T19:54:42.262Z,15.70
2018-08-31T19:57:10.687Z,15.70
2018-08-31T19:59:39.113Z,15.70
2018-08-31T20:02:07.577Z,15.70
2018-08-31T20:04:36.100Z,15.70
2018-08-31T20:07:04.547Z,15.70
2018-08-31T20:09:32.970Z,15.60
2018-08-31T20:12:01.400Z,15.60
2018-08-31T20:14:29.914Z,15.50
2018-08-31T20:16:58.380Z,15.50
2018-08-31T20:19:26.879Z,15.50
2018-08-31T20:21:55.344Z,15.40
2018-08-31T20:24:24.326Z,15.40
2018-08-31T20:26:52.774Z,15.30
2018-08-31T20:29:21.201Z,15.30
2018-08-31T20:31:49.643Z,15.30
2018-08-31T20:34:18.080Z,15.30
2018-08-31T20:36:46.527Z,15.20
2018-08-31T20:39:14.971Z,15.20
2018-08-31T20:41:43.414Z,15.10
2018-08-31T20:44:11.994Z,15.20
2018-08-31T20:46:40.443Z,15.10
2018-08-31T20:49:08.866Z,15.10
2018-08-31T20:51:37.321Z,15.00
2018-08-31T20:54:06.533Z,14.90
2018-08-31T20:56:34.961Z,14.90
2018-08-31T20:59:03.418Z,14.90
2018-08-31T21:01:31.823Z,14.80
2018-08-31T21:04:00.365Z,14.80
2018-08-31T21:06:28.837Z,14.80
2018-08-31T21:08:57.318Z,14.80
2018-08-31T21:11:25.738Z,14.80
2018-08-31T21:13:54.231Z,14.70
2018-08-31T21:16:22.656Z,14.70
2018-08-31T21:18:51.110Z,14.70
2018-08-31T21:21:19.579Z,14.70
2018-08-31T21:23:48.018Z,14.70
2018-08-31T21:26:16.457Z,14.60
2018-08-31T21:28:44.967Z,14.60
2018-08-31T21:31:13.402Z,14.60
2018-08-31T21:33:41.860Z,14.50
2018-08-31T21:36:10.310Z,14.50
2018-08-31T21:38:38.758Z,14.50
2018-08-31T21:41:07.306Z,14.40
2018-08-31T21:43:35.777Z,14.40
2018-08-31T21:46:04.214Z,14.50
2018-08-31T21:48:32.702Z,14.40
2018-08-31T21:51:01.192Z,14.40
2018-08-31T21:53:29.744Z,14.40
2018-08-31T21:55:58.179Z,14.40
2018-08-31T21:58:26.644Z,14.30
2018-08-31T22:01:00.550Z,14.30
2018-08-31T22:03:29.053Z,14.20
2018-08-31T22:05:57.494Z,14.20
2018-08-31T22:08:25.955Z,14.20
2018-08-31T22:10:54.475Z,14.20
2018-08-31T22:13:23.018Z,14.20
2018-08-31T22:15:51.459Z,14.20
2018-08-31T22:18:19.896Z,14.10
2018-08-31T22:20:48.319Z,14.10
2018-08-31T22:23:16.838Z,14.10
2018-08-31T22:25:45.303Z,14.10
2018-08-31T22:28:13.758Z,14.10
2018-08-31T22:30:42.167Z,14.00
2018-08-31T22:33:10.659Z,14.00
2018-08-31T22:35:39.111Z,14.00
2018-08-31T22:38:07.533Z,14.00
2018-08-31T22:40:35.966Z,13.90
2018-08-31T22:43:04.671Z,13.90
2018-08-31T22:45:33.108Z,13.90
2018-08-31T22:48:01.555Z,13.90
2018-08-31T22:50:29.963Z,13.80
2018-08-31T22:52:58.499Z,13.80
2018-08-31T22:55:26.961Z,13.80
2018-08-31T22:57:55.388Z,13.80
2018-08-31T23:00:23.849Z,13.70
2018-08-31T23:02:52.307Z,13.70
2018-08-31T23:05:20.732Z,13.60
2018-08-31T23:07:54.571Z,13.60
2018-08-31T23:10:23.037Z,13.60
2018-08-31T23:12:51.636Z,13.60
2018-08-31T23:15:20.096Z,13.60
2018-08-31T23:17:50.576Z,13.60
2018-08-31T23:20:20.198Z,13.50
2018-08-31T23:22:48.721Z,13.50
2018-08-31T23:25:22.401Z,13.50
2018-08-31T23:27:50.827Z,13.50
2018-08-31T23:30:19.263Z,13.50
2018-08-31T23:32:47.744Z,13.40
2018-08-31T23:35:16.177Z,13.40
2018-08-31T23:37:44.866Z,13.40
2018-08-31T23:40:13.310Z,13.40
2018-08-31T23:42:41.756Z,13.40
2018-08-31T23:45:10.192Z,13.30
2018-08-31T23:47:38.629Z,13.30
2018-08-31T23:50:07.074Z,13.30
2018-08-31T23:52:35.591Z,13.30
2018-08-31T23:55:04.035Z,13.30
2018-08-31T23:57:32.450Z,13.20
